HAZ805 ZGSZ-RCTP
Flight info
| Callsign | HAZ805 |
|---|---|
| Flight time | 1h 14m |
| Altitude | 37100 |
| Route | OVGOT2/15 OVGOT R200 EXTRA M750 TONGA TONG1A |
| Aircraft | A346/H-SDE2E3FGHIJ3J4J5M1RWXY/LB1D1 |
Departure
| Time | 2026-05-06 18:49 |
|---|---|
| Airport | Shenzhen Bao'an International Airport (ZGSZ) |
Arrival
| Time | 2026-05-06 20:03 |
|---|---|
| Airport | Taiwan Taoyuan International Airport (RCTP) |
| Time | Latitude | Longitude | Altitude | Speed | Heading |
|---|---|---|---|---|---|
| 2026-05-06 18:38 | 22.63017 | 113.81115 | 31 ft | 0 kts | 238° |
| 2026-05-06 18:40 | 22.63017 | 113.81116 | 31 ft | 1 kts | 238° |
| 2026-05-06 18:40 | 22.63024 | 113.81128 | 31 ft | 2 kts | 238° |
| 2026-05-06 18:40 | 22.63032 | 113.81142 | 31 ft | 2 kts | 238° |
| 2026-05-06 18:40 | 22.63040 | 113.81155 | 31 ft | 2 kts | 238° |
| 2026-05-06 18:41 | 22.63048 | 113.81170 | 31 ft | 2 kts | 243° |
| 2026-05-06 18:41 | 22.63052 | 113.81184 | 31 ft | 2 kts | 266° |
| 2026-05-06 18:41 | 22.63051 | 113.81200 | 31 ft | 2 kts | 284° |
| 2026-05-06 18:41 | 22.63046 | 113.81216 | 31 ft | 2 kts | 302° |
| 2026-05-06 18:42 | 22.63036 | 113.81228 | 31 ft | 2 kts | 320° |
| 2026-05-06 18:42 | 22.63028 | 113.81235 | 31 ft | 0 kts | 333° |
| 2026-05-06 18:42 | 22.63024 | 113.81237 | 31 ft | 0 kts | 334° |
| 2026-05-06 18:43 | 22.63040 | 113.81228 | 31 ft | 4 kts | 332° |
| 2026-05-06 18:43 | 22.63081 | 113.81210 | 31 ft | 8 kts | 354° |
| 2026-05-06 18:44 | 22.63143 | 113.81236 | 31 ft | 11 kts | 23° |
| 2026-05-06 18:44 | 22.63233 | 113.81225 | 31 ft | 15 kts | 338° |
| 2026-05-06 18:44 | 22.63335 | 113.81171 | 31 ft | 17 kts | 333° |
| 2026-05-06 18:44 | 22.63444 | 113.81112 | 31 ft | 18 kts | 333° |
| 2026-05-06 18:45 | 22.63567 | 113.81042 | 31 ft | 19 kts | 332° |
| 2026-05-06 18:45 | 22.63694 | 113.80975 | 31 ft | 21 kts | 334° |
| 2026-05-06 18:45 | 22.63831 | 113.80900 | 31 ft | 22 kts | 333° |
| 2026-05-06 18:45 | 22.63928 | 113.80846 | 31 ft | 23 kts | 333° |
| 2026-05-06 18:46 | 22.64132 | 113.80734 | 31 ft | 25 kts | 333° |
| 2026-05-06 18:46 | 22.64295 | 113.80645 | 31 ft | 27 kts | 333° |
| 2026-05-06 18:46 | 22.64469 | 113.80550 | 31 ft | 28 kts | 333° |
| 2026-05-06 18:46 | 22.64623 | 113.80466 | 31 ft | 25 kts | 333° |
| 2026-05-06 18:47 | 22.64786 | 113.80376 | 31 ft | 26 kts | 330° |
| 2026-05-06 18:47 | 22.64956 | 113.80283 | 31 ft | 27 kts | 333° |
| 2026-05-06 18:47 | 22.65098 | 113.80204 | 31 ft | 16 kts | 333° |
| 2026-05-06 18:47 | 22.65180 | 113.80168 | 31 ft | 11 kts | 357° |
| 2026-05-06 18:48 | 22.65239 | 113.80222 | 31 ft | 12 kts | 59° |
| 2026-05-06 18:48 | 22.65267 | 113.80317 | 31 ft | 12 kts | 109° |
| 2026-05-06 18:48 | 22.65140 | 113.80400 | 31 ft | 50 kts | 153° |
| 2026-05-06 18:48 | 22.64604 | 113.80695 | 31 ft | 120 kts | 152° |
| 2026-05-06 18:49 | 22.63679 | 113.81200 | 65 ft | 172 kts | 152° |
| 2026-05-06 18:49 | 22.62577 | 113.81719 | 666 ft | 171 kts | 156° |
| 2026-05-06 18:49 | 22.61397 | 113.81859 | 1257 ft | 178 kts | 193° |
| 2026-05-06 18:49 | 22.60246 | 113.81378 | 1841 ft | 180 kts | 201° |
| 2026-05-06 18:50 | 22.59063 | 113.80793 | 2175 ft | 195 kts | 202° |
| 2026-05-06 18:50 | 22.57788 | 113.80164 | 2501 ft | 212 kts | 202° |
| 2026-05-06 18:50 | 22.56373 | 113.79486 | 2839 ft | 230 kts | 202° |
| 2026-05-06 18:50 | 22.54826 | 113.78760 | 3234 ft | 250 kts | 202° |
| 2026-05-06 18:51 | 22.53199 | 113.78001 | 3802 ft | 263 kts | 203° |
| 2026-05-06 18:51 | 22.51691 | 113.76885 | 4544 ft | 270 kts | 232° |
| 2026-05-06 18:51 | 22.50992 | 113.75036 | 5463 ft | 271 kts | 266° |
| 2026-05-06 18:51 | 22.51308 | 113.73055 | 6358 ft | 274 kts | 294° |
| 2026-05-06 18:52 | 22.52435 | 113.71422 | 7160 ft | 280 kts | 320° |
| 2026-05-06 18:52 | 22.54180 | 113.70484 | 7932 ft | 286 kts | 343° |
| 2026-05-06 18:52 | 22.56106 | 113.69950 | 8664 ft | 290 kts | 343° |
| 2026-05-06 18:52 | 22.58067 | 113.69397 | 9390 ft | 294 kts | 343° |
| 2026-05-06 18:53 | 22.60033 | 113.68813 | 10126 ft | 297 kts | 343° |
| 2026-05-06 18:53 | 22.62066 | 113.68601 | 10768 ft | 305 kts | 8° |
| 2026-05-06 18:53 | 22.64001 | 113.69527 | 11462 ft | 311 kts | 40° |
| 2026-05-06 18:53 | 22.65285 | 113.71411 | 12140 ft | 315 kts | 69° |
| 2026-05-06 18:54 | 22.65777 | 113.73717 | 12572 ft | 325 kts | 82° |
| 2026-05-06 18:54 | 22.66110 | 113.76200 | 12872 ft | 342 kts | 82° |
| 2026-05-06 18:54 | 22.66498 | 113.78809 | 13161 ft | 359 kts | 81° |
| 2026-05-06 18:54 | 22.66947 | 113.81520 | 13440 ft | 376 kts | 79° |
| 2026-05-06 18:55 | 22.67453 | 113.84373 | 13709 ft | 392 kts | 79° |
| 2026-05-06 18:55 | 22.67990 | 113.87310 | 13977 ft | 408 kts | 79° |
| 2026-05-06 18:55 | 22.68560 | 113.90384 | 14391 ft | 418 kts | 79° |
| 2026-05-06 18:55 | 22.69134 | 113.93465 | 14998 ft | 422 kts | 79° |
| 2026-05-06 18:56 | 22.69712 | 113.96570 | 15612 ft | 425 kts | 79° |
| 2026-05-06 18:56 | 22.70299 | 113.99734 | 16188 ft | 429 kts | 79° |
| 2026-05-06 18:56 | 22.70867 | 114.02932 | 16743 ft | 434 kts | 81° |
| 2026-05-06 18:56 | 22.71286 | 114.06171 | 17285 ft | 438 kts | 84° |
| 2026-05-06 18:57 | 22.71637 | 114.09457 | 17816 ft | 442 kts | 84° |
| 2026-05-06 18:57 | 22.71972 | 114.12724 | 18343 ft | 445 kts | 84° |
| 2026-05-06 18:57 | 22.72318 | 114.16096 | 18866 ft | 449 kts | 84° |
| 2026-05-06 18:57 | 22.72664 | 114.19467 | 19373 ft | 453 kts | 84° |
| 2026-05-06 18:58 | 22.73011 | 114.22835 | 19860 ft | 457 kts | 84° |
| 2026-05-06 18:58 | 22.73368 | 114.26286 | 20358 ft | 460 kts | 84° |
| 2026-05-06 18:58 | 22.73720 | 114.29697 | 20846 ft | 463 kts | 84° |
| 2026-05-06 18:58 | 22.74080 | 114.33186 | 21324 ft | 467 kts | 84° |
| 2026-05-06 18:59 | 22.74440 | 114.36685 | 21783 ft | 470 kts | 83° |
| 2026-05-06 18:59 | 22.74804 | 114.40223 | 22250 ft | 473 kts | 83° |
| 2026-05-06 18:59 | 22.75166 | 114.43756 | 22713 ft | 477 kts | 83° |
| 2026-05-06 18:59 | 22.75532 | 114.47347 | 23160 ft | 480 kts | 83° |
| 2026-05-06 19:00 | 22.75900 | 114.50944 | 23622 ft | 483 kts | 83° |
| 2026-05-06 19:00 | 22.76268 | 114.54560 | 24089 ft | 486 kts | 83° |
| 2026-05-06 19:00 | 22.76636 | 114.58162 | 24563 ft | 489 kts | 83° |
| 2026-05-06 19:00 | 22.76886 | 114.60605 | 24865 ft | 491 kts | 83° |
| 2026-05-06 19:01 | 22.77388 | 114.65516 | 25461 ft | 496 kts | 83° |
| 2026-05-06 19:01 | 22.77766 | 114.69234 | 25910 ft | 499 kts | 83° |
| 2026-05-06 19:01 | 22.78146 | 114.72986 | 26345 ft | 502 kts | 83° |
| 2026-05-06 19:01 | 22.78528 | 114.76742 | 26775 ft | 504 kts | 82° |
| 2026-05-06 19:02 | 22.78922 | 114.80540 | 27205 ft | 507 kts | 82° |
| 2026-05-06 19:02 | 22.79320 | 114.84337 | 27617 ft | 510 kts | 82° |
| 2026-05-06 19:02 | 22.79716 | 114.88123 | 28047 ft | 512 kts | 82° |
| 2026-05-06 19:02 | 22.80115 | 114.91945 | 28629 ft | 511 kts | 82° |
| 2026-05-06 19:03 | 22.80509 | 114.95723 | 29261 ft | 508 kts | 81° |
| 2026-05-06 19:03 | 22.80907 | 114.99538 | 29881 ft | 506 kts | 81° |
| 2026-05-06 19:03 | 22.81298 | 115.03293 | 30464 ft | 505 kts | 81° |
| 2026-05-06 19:03 | 22.81692 | 115.07091 | 31019 ft | 504 kts | 81° |
| 2026-05-06 19:04 | 22.82078 | 115.10824 | 31536 ft | 503 kts | 81° |
| 2026-05-06 19:04 | 22.82466 | 115.14583 | 32048 ft | 503 kts | 81° |
| 2026-05-06 19:04 | 22.82853 | 115.18353 | 32566 ft | 502 kts | 81° |
| 2026-05-06 19:04 | 22.83240 | 115.22131 | 33107 ft | 502 kts | 81° |
| 2026-05-06 19:05 | 22.83629 | 115.25923 | 33670 ft | 501 kts | 81° |
| 2026-05-06 19:05 | 22.84012 | 115.29668 | 34249 ft | 499 kts | 81° |
| 2026-05-06 19:05 | 22.84389 | 115.33363 | 34804 ft | 498 kts | 81° |
| 2026-05-06 19:05 | 22.84766 | 115.37070 | 35327 ft | 497 kts | 82° |
| 2026-05-06 19:06 | 22.85150 | 115.40858 | 35755 ft | 497 kts | 82° |
| 2026-05-06 19:06 | 22.85530 | 115.44611 | 36059 ft | 500 kts | 82° |
| 2026-05-06 19:06 | 22.85906 | 115.48331 | 36314 ft | 503 kts | 82° |
| 2026-05-06 19:06 | 22.86285 | 115.52093 | 36600 ft | 505 kts | 82° |
| 2026-05-06 19:07 | 22.86666 | 115.55894 | 36902 ft | 507 kts | 82° |
| 2026-05-06 19:07 | 22.86921 | 115.58444 | 37011 ft | 508 kts | 82° |
| 2026-05-06 19:07 | 22.87450 | 115.63515 | 37012 ft | 509 kts | 81° |
| 2026-05-06 19:08 | 22.88261 | 115.71168 | 37010 ft | 510 kts | 82° |
| 2026-05-06 19:08 | 22.89061 | 115.78765 | 37007 ft | 511 kts | 82° |
| 2026-05-06 19:09 | 22.89868 | 115.86470 | 37324 ft | 514 kts | 82° |
| 2026-05-06 19:09 | 22.90270 | 115.90320 | 37736 ft | 512 kts | 82° |
| 2026-05-06 19:09 | 22.90670 | 115.94140 | 38101 ft | 510 kts | 82° |
| 2026-05-06 19:09 | 22.91066 | 115.97914 | 38404 ft | 509 kts | 82° |
| 2026-05-06 19:10 | 22.91463 | 116.01728 | 38678 ft | 509 kts | 82° |
| 2026-05-06 19:10 | 22.91861 | 116.05570 | 38903 ft | 510 kts | 82° |
| 2026-05-06 19:10 | 22.92259 | 116.09422 | 38906 ft | 510 kts | 82° |
| 2026-05-06 19:11 | 22.93043 | 116.17042 | 38909 ft | 509 kts | 82° |
| 2026-05-06 19:11 | 22.93827 | 116.24661 | 38910 ft | 509 kts | 82° |
| 2026-05-06 19:12 | 22.94609 | 116.32316 | 38907 ft | 510 kts | 82° |
| 2026-05-06 19:12 | 22.95188 | 116.39960 | 38906 ft | 510 kts | 85° |
| 2026-05-06 19:13 | 22.95538 | 116.47691 | 38905 ft | 511 kts | 85° |
| 2026-05-06 19:13 | 22.95876 | 116.55336 | 38902 ft | 510 kts | 85° |
| 2026-05-06 19:14 | 22.96225 | 116.63021 | 38903 ft | 510 kts | 85° |
| 2026-05-06 19:14 | 22.96573 | 116.70731 | 38900 ft | 510 kts | 86° |
| 2026-05-06 19:15 | 22.96915 | 116.78400 | 38901 ft | 510 kts | 86° |
| 2026-05-06 19:15 | 22.97253 | 116.86052 | 38909 ft | 511 kts | 86° |
| 2026-05-06 19:16 | 22.97590 | 116.93758 | 38912 ft | 511 kts | 86° |
| 2026-05-06 19:16 | 22.97923 | 117.01462 | 38913 ft | 510 kts | 86° |
| 2026-05-06 19:17 | 22.98252 | 117.09137 | 38914 ft | 510 kts | 86° |
| 2026-05-06 19:17 | 22.98576 | 117.16781 | 38914 ft | 510 kts | 86° |
| 2026-05-06 19:18 | 22.98900 | 117.24466 | 38914 ft | 509 kts | 86° |
| 2026-05-06 19:18 | 22.99218 | 117.32089 | 38914 ft | 509 kts | 86° |
| 2026-05-06 19:19 | 22.99522 | 117.39771 | 38914 ft | 509 kts | 86° |
| 2026-05-06 19:19 | 22.99514 | 117.47414 | 38884 ft | 510 kts | 99° |
| 2026-05-06 19:19 | 22.98456 | 117.51102 | 38897 ft | 508 kts | 117° |
| 2026-05-06 19:20 | 22.96497 | 117.54248 | 38905 ft | 504 kts | 134° |
| 2026-05-06 19:20 | 22.91606 | 117.59743 | 38911 ft | 507 kts | 136° |
| 2026-05-06 19:21 | 22.86725 | 117.65218 | 38907 ft | 507 kts | 135° |
| 2026-05-06 19:21 | 22.81884 | 117.70781 | 38905 ft | 507 kts | 135° |
| 2026-05-06 19:22 | 22.77058 | 117.76345 | 38904 ft | 507 kts | 135° |
| 2026-05-06 19:22 | 22.72181 | 117.81949 | 38898 ft | 515 kts | 135° |
| 2026-05-06 19:23 | 22.67244 | 117.87616 | 38897 ft | 517 kts | 135° |
| 2026-05-06 19:23 | 22.62305 | 117.93277 | 38893 ft | 518 kts | 135° |
| 2026-05-06 19:24 | 22.57516 | 117.99119 | 38894 ft | 518 kts | 131° |
| 2026-05-06 19:24 | 22.52910 | 118.05041 | 38894 ft | 517 kts | 131° |
| 2026-05-06 19:25 | 22.48270 | 118.10994 | 38891 ft | 515 kts | 131° |
| 2026-05-06 19:25 | 22.46136 | 118.14128 | 38883 ft | 510 kts | 120° |
| 2026-05-06 19:25 | 22.44666 | 118.17590 | 38894 ft | 509 kts | 107° |
| 2026-05-06 19:25 | 22.43901 | 118.21333 | 38894 ft | 507 kts | 94° |
| 2026-05-06 19:26 | 22.43873 | 118.25085 | 38898 ft | 504 kts | 81° |
| 2026-05-06 19:26 | 22.44560 | 118.28774 | 38897 ft | 499 kts | 69° |
| 2026-05-06 19:26 | 22.45910 | 118.32201 | 38896 ft | 494 kts | 57° |
| 2026-05-06 19:27 | 22.49535 | 118.38484 | 38899 ft | 494 kts | 54° |
| 2026-05-06 19:27 | 22.53202 | 118.44774 | 38901 ft | 495 kts | 55° |
| 2026-05-06 19:28 | 22.56790 | 118.51109 | 38898 ft | 495 kts | 55° |
| 2026-05-06 19:28 | 22.60392 | 118.57436 | 38894 ft | 495 kts | 54° |
| 2026-05-06 19:29 | 22.63994 | 118.63744 | 38896 ft | 495 kts | 54° |
| 2026-05-06 19:29 | 22.67624 | 118.70141 | 38893 ft | 496 kts | 55° |
| 2026-05-06 19:30 | 22.71209 | 118.76479 | 38895 ft | 496 kts | 55° |
| 2026-05-06 19:30 | 22.74809 | 118.82831 | 38895 ft | 497 kts | 55° |
| 2026-05-06 19:31 | 22.78421 | 118.89208 | 38894 ft | 497 kts | 55° |
| 2026-05-06 19:31 | 22.83831 | 118.98769 | 38893 ft | 498 kts | 55° |
| 2026-05-06 19:32 | 22.87421 | 119.05124 | 38893 ft | 497 kts | 54° |
| 2026-05-06 19:32 | 22.91030 | 119.11517 | 38893 ft | 497 kts | 54° |
| 2026-05-06 19:33 | 22.94642 | 119.17924 | 38893 ft | 497 kts | 55° |
| 2026-05-06 19:33 | 22.98248 | 119.24332 | 38894 ft | 497 kts | 55° |
| 2026-05-06 19:34 | 23.01840 | 119.30723 | 38679 ft | 498 kts | 54° |
| 2026-05-06 19:34 | 23.03613 | 119.33879 | 38380 ft | 495 kts | 54° |
| 2026-05-06 19:34 | 23.05403 | 119.37068 | 38048 ft | 492 kts | 54° |
| 2026-05-06 19:35 | 23.07173 | 119.40221 | 37684 ft | 488 kts | 55° |
| 2026-05-06 19:35 | 23.08935 | 119.43362 | 37218 ft | 487 kts | 55° |
| 2026-05-06 19:35 | 23.10699 | 119.46505 | 36691 ft | 487 kts | 55° |
| 2026-05-06 19:35 | 23.12451 | 119.49609 | 36181 ft | 486 kts | 54° |
| 2026-05-06 19:36 | 23.14337 | 119.52642 | 35585 ft | 484 kts | 50° |
| 2026-05-06 19:36 | 23.16448 | 119.55508 | 34985 ft | 482 kts | 45° |
| 2026-05-06 19:36 | 23.21136 | 119.60498 | 33828 ft | 477 kts | 36° |
| 2026-05-06 19:37 | 23.23753 | 119.62680 | 33236 ft | 474 kts | 32° |
| 2026-05-06 19:37 | 23.26507 | 119.64619 | 32645 ft | 473 kts | 28° |
| 2026-05-06 19:37 | 23.29336 | 119.66425 | 32050 ft | 472 kts | 28° |
| 2026-05-06 19:37 | 23.31220 | 119.67615 | 31648 ft | 473 kts | 27° |
| 2026-05-06 19:38 | 23.35001 | 119.69989 | 30813 ft | 474 kts | 27° |
| 2026-05-06 19:38 | 23.37889 | 119.71803 | 30177 ft | 474 kts | 27° |
| 2026-05-06 19:38 | 23.40725 | 119.73586 | 29566 ft | 475 kts | 28° |
| 2026-05-06 19:38 | 23.43602 | 119.75399 | 28943 ft | 475 kts | 28° |
| 2026-05-06 19:39 | 23.46429 | 119.77181 | 28336 ft | 475 kts | 28° |
| 2026-05-06 19:39 | 23.49274 | 119.79044 | 27688 ft | 477 kts | 30° |
| 2026-05-06 19:39 | 23.52072 | 119.80956 | 27191 ft | 474 kts | 30° |
| 2026-05-06 19:39 | 23.54857 | 119.82875 | 26727 ft | 471 kts | 30° |
| 2026-05-06 19:40 | 23.57567 | 119.84747 | 26249 ft | 468 kts | 30° |
| 2026-05-06 19:40 | 23.60306 | 119.86638 | 25790 ft | 465 kts | 30° |
| 2026-05-06 19:40 | 23.63044 | 119.88527 | 25342 ft | 462 kts | 30° |
| 2026-05-06 19:40 | 23.65735 | 119.90385 | 24901 ft | 459 kts | 30° |
| 2026-05-06 19:41 | 23.68430 | 119.92244 | 24455 ft | 455 kts | 30° |
| 2026-05-06 19:41 | 23.71112 | 119.94096 | 24002 ft | 453 kts | 30° |
| 2026-05-06 19:41 | 23.73760 | 119.95923 | 23555 ft | 450 kts | 30° |
| 2026-05-06 19:41 | 23.76398 | 119.97745 | 23111 ft | 448 kts | 30° |
| 2026-05-06 19:42 | 23.79026 | 119.99560 | 22676 ft | 445 kts | 30° |
| 2026-05-06 19:42 | 23.81634 | 120.01362 | 22256 ft | 442 kts | 30° |
| 2026-05-06 19:42 | 23.84236 | 120.03160 | 21846 ft | 440 kts | 30° |
| 2026-05-06 19:42 | 23.86805 | 120.04939 | 21451 ft | 436 kts | 30° |
| 2026-05-06 19:43 | 23.89332 | 120.06688 | 21052 ft | 433 kts | 30° |
| 2026-05-06 19:43 | 23.91876 | 120.08450 | 20645 ft | 430 kts | 30° |
| 2026-05-06 19:43 | 23.94408 | 120.10204 | 20259 ft | 427 kts | 30° |
| 2026-05-06 19:43 | 23.96927 | 120.11951 | 19855 ft | 425 kts | 30° |
| 2026-05-06 19:44 | 23.99410 | 120.13673 | 19457 ft | 422 kts | 30° |
| 2026-05-06 19:44 | 24.01872 | 120.15382 | 19058 ft | 420 kts | 30° |
| 2026-05-06 19:44 | 24.04337 | 120.17093 | 18651 ft | 417 kts | 30° |
| 2026-05-06 19:44 | 24.06758 | 120.18774 | 18267 ft | 414 kts | 30° |
| 2026-05-06 19:45 | 24.09208 | 120.20477 | 17854 ft | 412 kts | 30° |
| 2026-05-06 19:45 | 24.11615 | 120.22148 | 17461 ft | 409 kts | 30° |
| 2026-05-06 19:45 | 24.14000 | 120.23797 | 17089 ft | 407 kts | 30° |
| 2026-05-06 19:45 | 24.16388 | 120.25452 | 16694 ft | 405 kts | 30° |
| 2026-05-06 19:46 | 24.18770 | 120.27106 | 16310 ft | 402 kts | 30° |
| 2026-05-06 19:46 | 24.21114 | 120.28735 | 15923 ft | 400 kts | 31° |
| 2026-05-06 19:46 | 24.23479 | 120.30381 | 15522 ft | 398 kts | 31° |
| 2026-05-06 19:46 | 24.25781 | 120.31986 | 15143 ft | 396 kts | 31° |
| 2026-05-06 19:47 | 24.28124 | 120.33621 | 14740 ft | 394 kts | 30° |
| 2026-05-06 19:47 | 24.30403 | 120.35210 | 14339 ft | 392 kts | 31° |
| 2026-05-06 19:47 | 24.32702 | 120.36814 | 13956 ft | 390 kts | 31° |
| 2026-05-06 19:47 | 24.34987 | 120.38411 | 13557 ft | 388 kts | 31° |
| 2026-05-06 19:48 | 24.37255 | 120.39994 | 13167 ft | 386 kts | 31° |
| 2026-05-06 19:48 | 24.39510 | 120.41571 | 12779 ft | 383 kts | 31° |
| 2026-05-06 19:48 | 24.41749 | 120.43136 | 12385 ft | 382 kts | 31° |
| 2026-05-06 19:48 | 24.44010 | 120.44719 | 11966 ft | 380 kts | 31° |
| 2026-05-06 19:49 | 24.46220 | 120.46265 | 11578 ft | 378 kts | 31° |
| 2026-05-06 19:49 | 24.48428 | 120.47813 | 11165 ft | 376 kts | 31° |
| 2026-05-06 19:49 | 24.50618 | 120.49347 | 10750 ft | 374 kts | 31° |
| 2026-05-06 19:49 | 24.52810 | 120.50884 | 10347 ft | 372 kts | 31° |
| 2026-05-06 19:50 | 24.54983 | 120.52410 | 10230 ft | 359 kts | 31° |
| 2026-05-06 19:50 | 24.57028 | 120.53848 | 10186 ft | 345 kts | 31° |
| 2026-05-06 19:50 | 24.59003 | 120.55235 | 10154 ft | 331 kts | 31° |
| 2026-05-06 19:50 | 24.60909 | 120.56575 | 10114 ft | 317 kts | 31° |
| 2026-05-06 19:51 | 24.62736 | 120.57858 | 10072 ft | 304 kts | 31° |
| 2026-05-06 19:51 | 24.64501 | 120.59097 | 10031 ft | 294 kts | 31° |
| 2026-05-06 19:51 | 24.66218 | 120.60307 | 9825 ft | 294 kts | 32° |
| 2026-05-06 19:51 | 24.67866 | 120.61611 | 9511 ft | 294 kts | 37° |
| 2026-05-06 19:52 | 24.69424 | 120.63068 | 9210 ft | 294 kts | 40° |
| 2026-05-06 19:52 | 24.70959 | 120.64576 | 8922 ft | 293 kts | 41° |
| 2026-05-06 19:52 | 24.72463 | 120.66069 | 8646 ft | 291 kts | 41° |
| 2026-05-06 19:52 | 24.73951 | 120.67554 | 8376 ft | 289 kts | 41° |
| 2026-05-06 19:53 | 24.75433 | 120.69030 | 8105 ft | 287 kts | 41° |
| 2026-05-06 19:53 | 24.76920 | 120.70503 | 7837 ft | 285 kts | 41° |
| 2026-05-06 19:53 | 24.78391 | 120.71954 | 7575 ft | 284 kts | 41° |
| 2026-05-06 19:53 | 24.79850 | 120.73390 | 7311 ft | 283 kts | 41° |
| 2026-05-06 19:54 | 24.81325 | 120.74842 | 7029 ft | 281 kts | 41° |
| 2026-05-06 19:54 | 24.82784 | 120.76279 | 6765 ft | 279 kts | 41° |
| 2026-05-06 19:54 | 24.84220 | 120.77693 | 6505 ft | 278 kts | 41° |
| 2026-05-06 19:54 | 24.85664 | 120.79115 | 6247 ft | 276 kts | 41° |
| 2026-05-06 19:55 | 24.87090 | 120.80520 | 5990 ft | 275 kts | 41° |
| 2026-05-06 19:55 | 24.88506 | 120.81917 | 5731 ft | 273 kts | 41° |
| 2026-05-06 19:55 | 24.89924 | 120.83316 | 5471 ft | 272 kts | 41° |
| 2026-05-06 19:55 | 24.91274 | 120.84766 | 5176 ft | 271 kts | 55° |
| 2026-05-06 19:56 | 24.91921 | 120.86670 | 4874 ft | 269 kts | 89° |
| 2026-05-06 19:56 | 24.91838 | 120.88708 | 4648 ft | 264 kts | 96° |
| 2026-05-06 19:56 | 24.91697 | 120.90700 | 4392 ft | 263 kts | 95° |
| 2026-05-06 19:56 | 24.91573 | 120.92708 | 4149 ft | 261 kts | 95° |
| 2026-05-06 19:57 | 24.91468 | 120.94675 | 4107 ft | 249 kts | 94° |
| 2026-05-06 19:57 | 24.91378 | 120.96513 | 4100 ft | 237 kts | 94° |
| 2026-05-06 19:57 | 24.91293 | 120.98316 | 4078 ft | 236 kts | 94° |
| 2026-05-06 19:57 | 24.91237 | 121.00133 | 3923 ft | 235 kts | 83° |
| 2026-05-06 19:58 | 24.91749 | 121.01810 | 3665 ft | 235 kts | 59° |
| 2026-05-06 19:58 | 24.92713 | 121.03243 | 3441 ft | 229 kts | 49° |
| 2026-05-06 19:58 | 24.93782 | 121.04522 | 3196 ft | 223 kts | 46° |
| 2026-05-06 19:58 | 24.94830 | 121.05762 | 2960 ft | 218 kts | 47° |
| 2026-05-06 19:59 | 24.95836 | 121.06992 | 2721 ft | 213 kts | 48° |
| 2026-05-06 19:59 | 24.96807 | 121.08216 | 2555 ft | 210 kts | 49° |
| 2026-05-06 19:59 | 24.97719 | 121.09383 | 2496 ft | 190 kts | 49° |
| 2026-05-06 19:59 | 24.98522 | 121.10415 | 2436 ft | 168 kts | 49° |
| 2026-05-06 20:00 | 24.99282 | 121.11389 | 2375 ft | 164 kts | 49° |
| 2026-05-06 20:00 | 25.00029 | 121.12345 | 2238 ft | 164 kts | 48° |
| 2026-05-06 20:00 | 25.00772 | 121.13296 | 2024 ft | 163 kts | 48° |
| 2026-05-06 20:00 | 25.01506 | 121.14232 | 1815 ft | 161 kts | 48° |
| 2026-05-06 20:01 | 25.02231 | 121.15157 | 1606 ft | 159 kts | 48° |
| 2026-05-06 20:01 | 25.02955 | 121.16081 | 1399 ft | 158 kts | 48° |
| 2026-05-06 20:01 | 25.03666 | 121.17009 | 1167 ft | 158 kts | 50° |
| 2026-05-06 20:01 | 25.04379 | 121.17928 | 949 ft | 158 kts | 49° |
| 2026-05-06 20:02 | 25.05102 | 121.18843 | 766 ft | 158 kts | 49° |
| 2026-05-06 20:02 | 25.05833 | 121.19756 | 565 ft | 159 kts | 48° |
| 2026-05-06 20:02 | 25.06565 | 121.20665 | 339 ft | 158 kts | 49° |
| 2026-05-06 20:02 | 25.07292 | 121.21594 | 172 ft | 159 kts | 50° |
| 2026-05-06 20:03 | 25.07952 | 121.22437 | 125 ft | 126 kts | 51° |
| 2026-05-06 20:03 | 25.08382 | 121.22989 | 125 ft | 61 kts | 48° |
| 2026-05-06 20:03 | 25.08584 | 121.23244 | 125 ft | 33 kts | 50° |
| 2026-05-06 20:03 | 25.08684 | 121.23428 | 125 ft | 18 kts | 72° |
| 2026-05-06 20:04 | 25.08712 | 121.23556 | 125 ft | 14 kts | 78° |
| 2026-05-06 20:04 | 25.08685 | 121.23646 | 125 ft | 11 kts | 161° |
| 2026-05-06 20:04 | 25.08612 | 121.23604 | 125 ft | 13 kts | 229° |
| 2026-05-06 20:04 | 25.08546 | 121.23521 | 125 ft | 14 kts | 229° |
| 2026-05-06 20:05 | 25.08462 | 121.23473 | 125 ft | 11 kts | 164° |
| 2026-05-06 20:05 | 25.08404 | 121.23484 | 125 ft | 8 kts | 197° |
| 2026-05-06 20:05 | 25.08350 | 121.23437 | 125 ft | 11 kts | 228° |
| 2026-05-06 20:05 | 25.08289 | 121.23362 | 125 ft | 14 kts | 228° |
| 2026-05-06 20:06 | 25.08224 | 121.23278 | 125 ft | 16 kts | 230° |
| 2026-05-06 20:06 | 25.08154 | 121.23207 | 125 ft | 5 kts | 180° |
| 2026-05-06 20:06 | 25.08127 | 121.23222 | 125 ft | 5 kts | 152° |
| 2026-05-06 20:06 | 25.08095 | 121.23246 | 125 ft | 3 kts | 140° |
| 2026-05-06 20:07 | 25.08083 | 121.23257 | 125 ft | 0 kts | 140° |